Time;durP1;ratioP1;P1;durP2;ratioP2;P2;SDS_P1;SDS_P2;PMS_P1;PMS_P2;Temp;Humidity;BMP_temperature;BMP_pressure;BME280_temperature;BME280_humidity;BME280_pressure;Samples;Min_cycle;Max_cycle;Signal;HPM_P1;HPM_P2
2022/06/02 00:01:12;;;;;;;;;;;23.90;41.60;;;;;;4146232;28;20758;-57
2022/06/02 00:03:24;;;;;;;;;;;24.20;41.50;;;;;;4141234;28;20488;-55
2022/06/02 00:05:32;;;;;;;;;;;24.50;41.00;;;;;;4144229;28;20340;-53
2022/06/02 00:07:52;;;;;;;;;;;24.80;40.50;;;;;;4142208;28;19932;-53
2022/06/02 00:09:53;;;;;;;;;;;25.10;40.00;;;;;;4142506;28;20271;-54
2022/06/02 00:11:55;;;;;;;;;;;25.40;39.70;;;;;;4145064;28;19924;-53
2022/06/02 00:14:19;;;;;;;;;;;25.50;39.60;;;;;;4143408;28;20558;-53
2022/06/02 00:16:26;;;;;;;;;;;25.30;39.80;;;;;;4120642;28;19935;-54
2022/06/02 00:18:34;;;;;;;;;;;24.90;40.10;;;;;;4140972;28;19999;-53
2022/06/02 00:21:11;;;;;;;;;;;25.00;40.30;;;;;;4143226;28;19928;-52
2022/06/02 00:23:12;;;;;;;;;;;25.10;40.10;;;;;;4129892;28;19936;-57
2022/06/02 00:25:14;;;;;;;;;;;25.20;40.00;;;;;;4133079;28;21298;-53
2022/06/02 00:27:15;;;;;;;;;;;25.00;40.30;;;;;;4143398;28;20284;-51
2022/06/02 00:29:17;;;;;;;;;;;24.80;40.50;;;;;;4150784;28;19924;-51
2022/06/02 00:31:32;;;;;;;;;;;24.80;40.50;;;;;;4143685;28;20665;-50
2022/06/02 00:33:36;;;;;;;;;;;24.70;41.00;;;;;;4144317;28;19932;-57
2022/06/02 00:35:42;;;;;;;;;;;24.50;41.00;;;;;;4142033;28;20394;-52
2022/06/02 00:37:59;;;;;;;;;;;24.70;40.90;;;;;;4138342;28;19967;-55
2022/06/02 00:40:01;;;;;;;;;;;25.00;40.50;;;;;;4140188;28;20322;-56
2022/06/02 00:42:11;;;;;;;;;;;25.10;40.30;;;;;;4148947;28;21029;-50
2022/06/02 00:44:15;;;;;;;;;;;24.90;40.10;;;;;;4147598;28;19931;-54
2022/06/02 00:46:20;;;;;;;;;;;24.80;40.50;;;;;;4148008;28;21233;-52
2022/06/02 00:48:53;;;;;;;;;;;24.70;40.60;;;;;;4139096;28;20333;-52
2022/06/02 00:50:57;;;;;;;;;;;24.50;40.90;;;;;;4109002;28;19940;-52
2022/06/02 00:53:02;;;;;;;;;;;24.50;40.80;;;;;;4149882;28;19973;-53
2022/06/02 00:57:55;;;;;;;;;;;25.00;40.30;;;;;;4135334;28;20626;-51
2022/06/02 01:00:04;;;;;;;;;;;24.70;41.10;;;;;;4146956;28;19929;-53
2022/06/02 01:02:05;;;;;;;;;;;24.70;40.50;;;;;;4144675;28;20846;-55
2022/06/02 01:04:15;;;;;;;;;;;24.90;40.90;;;;;;4143632;28;20686;-54
2022/06/02 01:06:23;;;;;;;;;;;25.30;40.00;;;;;;4150162;28;19950;-54
2022/06/02 01:08:24;;;;;;;;;;;25.60;40.10;;;;;;4152405;28;19928;-54
2022/06/02 01:10:38;;;;;;;;;;;25.90;39.20;;;;;;4144455;28;20439;-54
2022/06/02 01:12:57;;;;;;;;;;;26.20;38.80;;;;;;4149989;28;19937;-53
2022/06/02 01:15:05;;;;;;;;;;;26.30;38.80;;;;;;4150636;28;20022;-58
2022/06/02 01:17:24;;;;;;;;;;;26.10;38.80;;;;;;4148991;28;20505;-53
2022/06/02 01:19:50;;;;;;;;;;;25.80;39.20;;;;;;4156676;28;20042;-56
2022/06/02 01:22:07;;;;;;;;;;;25.60;39.40;;;;;;4145228;28;19936;-53
2022/06/02 01:24:18;;;;;;;;;;;25.70;39.40;;;;;;4149732;28;19928;-52
2022/06/02 01:26:38;;;;;;;;;;;25.60;39.30;;;;;;4141565;28;19931;-54
2022/06/02 01:28:39;;;;;;;;;;;25.30;39.60;;;;;;4147867;28;20498;-51
2022/06/02 01:30:51;;;;;;;;;;;25.40;39.70;;;;;;4142411;28;19936;-49
2022/06/02 01:32:53;;;;;;;;;;;25.60;39.50;;;;;;4148927;28;19932;-50
2022/06/02 01:35:30;;;;;;;;;;;25.50;39.50;;;;;;4153412;28;19986;-51
2022/06/02 01:37:43;;;;;;;;;;;25.30;40.10;;;;;;4091167;28;20072;-49
2022/06/02 01:39:45;;;;;;;;;;;25.00;39.90;;;;;;4133721;28;20403;-54
2022/06/02 01:41:58;;;;;;;;;;;24.80;40.30;;;;;;4137181;28;19947;-49
2022/06/02 01:44:06;;;;;;;;;;;24.60;40.80;;;;;;4143183;28;20117;-53
2022/06/02 01:46:25;;;;;;;;;;;24.60;41.10;;;;;;4145550;28;19996;-53
2022/06/02 01:48:33;;;;;;;;;;;24.60;41.00;;;;;;4151755;28;19935;-54
2022/06/02 01:51:00;;;;;;;;;;;24.40;41.00;;;;;;4143336;28;19924;-54
2022/06/02 01:53:20;;;;;;;;;;;24.30;41.20;;;;;;4147871;28;20063;-51
2022/06/02 01:55:40;;;;;;;;;;;24.20;41.50;;;;;;4136161;28;19924;-52
2022/06/02 01:58:01;;;;;;;;;;;24.20;41.50;;;;;;4144608;28;20327;-41
2022/06/02 02:00:06;;;;;;;;;;;24.10;41.60;;;;;;4147550;28;20066;-44
2022/06/02 02:02:07;;;;;;;;;;;24.00;41.80;;;;;;4143036;28;19929;-46
2022/06/02 02:04:15;;;;;;;;;;;23.90;41.90;;;;;;4142546;28;19928;-54
2022/06/02 02:06:19;;;;;;;;;;;23.90;41.70;;;;;;4151391;28;20315;-42
2022/06/02 02:08:35;;;;;;;;;;;23.80;41.90;;;;;;4153721;28;19928;-45
2022/06/02 02:10:55;;;;;;;;;;;23.70;42.10;;;;;;4152668;28;19969;-45
2022/06/02 02:13:09;;;;;;;;;;;23.60;42.50;;;;;;4130042;28;20612;-43
2022/06/02 02:15:16;;;;;;;;;;;23.50;42.20;;;;;;4141219;28;19928;-47
2022/06/02 02:17:17;;;;;;;;;;;23.40;42.50;;;;;;4151319;28;20427;-48
2022/06/02 02:19:19;;;;;;;;;;;23.30;42.60;;;;;;4149870;28;21071;-45
2022/06/02 02:21:29;;;;;;;;;;;23.30;42.50;;;;;;4142397;28;20014;-45
2022/06/02 02:23:35;;;;;;;;;;;23.40;42.40;;;;;;4141929;28;19927;-49
2022/06/02 02:25:40;;;;;;;;;;;23.30;42.50;;;;;;4145834;28;20023;-47
2022/06/02 02:30:09;;;;;;;;;;;23.20;42.80;;;;;;4127276;28;19940;-47
2022/06/02 02:32:21;;;;;;;;;;;23.30;42.50;;;;;;4127956;28;20287;-45
2022/06/02 02:34:26;;;;;;;;;;;23.30;42.50;;;;;;4134039;28;20145;-44
2022/06/02 02:36:44;;;;;;;;;;;23.20;42.70;;;;;;4114280;28;20107;-46
2022/06/02 02:39:01;;;;;;;;;;;23.10;42.90;;;;;;4125472;28;20046;-44
2022/06/02 02:41:05;;;;;;;;;;;23.20;42.90;;;;;;4125340;28;19973;-54
2022/06/02 02:43:07;;;;;;;;;;;23.30;42.70;;;;;;4133949;28;19932;-53
2022/06/02 02:45:26;;;;;;;;;;;23.20;42.90;;;;;;4125407;28;20330;-49
2022/06/02 02:47:46;;;;;;;;;;;23.10;43.40;;;;;;4132822;28;19960;-50
2022/06/02 02:49:50;;;;;;;;;;;23.10;43.50;;;;;;4130834;28;20491;-55
2022/06/02 02:52:03;;;;;;;;;;;23.10;43.50;;;;;;4130607;28;19959;-53
2022/06/02 02:54:11;;;;;;;;;;;23.10;43.40;;;;;;4133174;28;19932;-52
2022/06/02 02:56:12;;;;;;;;;;;23.00;43.80;;;;;;4126318;28;19979;-54
2022/06/02 02:58:17;;;;;;;;;;;23.10;43.80;;;;;;4124863;28;19928;-54
2022/06/02 03:00:33;;;;;;;;;;;23.30;43.40;;;;;;4126047;28;20342;-54
2022/06/02 03:02:53;;;;;;;;;;;23.20;43.30;;;;;;4124224;28;19974;-53
2022/06/02 03:04:58;;;;;;;;;;;23.10;43.30;;;;;;4124855;28;19924;-55
2022/06/02 03:07:00;;;;;;;;;;;23.10;43.80;;;;;;4123811;28;19928;-54
2022/06/02 03:09:08;;;;;;;;;;;23.20;43.40;;;;;;4130210;28;20032;-54
2022/06/02 03:11:22;;;;;;;;;;;23.20;43.40;;;;;;4130834;28;20648;-50
2022/06/02 03:13:43;;;;;;;;;;;23.20;43.50;;;;;;4131896;28;20031;-54
2022/06/02 03:15:51;;;;;;;;;;;23.00;43.80;;;;;;4126376;28;20153;-50
2022/06/02 03:17:57;;;;;;;;;;;23.20;43.60;;;;;;4126653;28;19935;-53
2022/06/02 03:20:05;;;;;;;;;;;23.30;43.30;;;;;;4133441;28;20461;-53
2022/06/02 03:22:06;;;;;;;;;;;23.20;43.40;;;;;;4131119;28;20668;-52
2022/06/02 03:24:16;;;;;;;;;;;23.20;43.60;;;;;;4118711;28;19932;-50
2022/06/02 03:26:20;;;;;;;;;;;23.10;43.90;;;;;;4126191;28;19932;-53
2022/06/02 03:28:40;;;;;;;;;;;23.30;43.60;;;;;;4127739;28;19928;-55
2022/06/02 03:31:00;;;;;;;;;;;23.40;43.30;;;;;;4138774;28;19927;-48
2022/06/02 03:33:10;;;;;;;;;;;23.40;43.40;;;;;;4140435;28;19928;-49
2022/06/02 03:35:30;;;;;;;;;;;23.20;43.60;;;;;;4140213;28;20329;-55
2022/06/02 03:37:45;;;;;;;;;;;23.20;43.90;;;;;;4147605;28;21168;-46
2022/06/02 03:39:46;;;;;;;;;;;23.30;43.80;;;;;;4140126;28;19924;-53
2022/06/02 03:42:03;;;;;;;;;;;23.20;43.70;;;;;;4140417;28;20357;-51
2022/06/02 03:44:11;;;;;;;;;;;23.10;44.00;;;;;;4141488;28;19971;-52
2022/06/02 03:46:31;;;;;;;;;;;23.10;43.90;;;;;;4140320;28;19924;-52
2022/06/02 03:48:53;;;;;;;;;;;23.20;43.80;;;;;;4146604;28;20518;-50
2022/06/02 03:50:55;;;;;;;;;;;23.20;43.90;;;;;;4144918;28;19976;-53
2022/06/02 03:53:04;;;;;;;;;;;23.20;44.20;;;;;;4146020;28;20983;-54
2022/06/02 03:55:16;;;;;;;;;;;23.20;43.80;;;;;;4142257;28;21584;-51
2022/06/02 03:57:22;;;;;;;;;;;23.20;43.80;;;;;;4143182;28;20522;-54
2022/06/02 03:59:43;;;;;;;;;;;23.10;43.90;;;;;;4140725;28;20264;-50
2022/06/02 04:01:51;;;;;;;;;;;23.20;44.30;;;;;;4147828;28;21612;-55
2022/06/02 04:04:15;;;;;;;;;;;23.40;43.90;;;;;;4137748;28;19929;-53
2022/06/02 04:06:35;;;;;;;;;;;23.40;43.80;;;;;;4124468;28;19968;-55
2022/06/02 04:08:36;;;;;;;;;;;23.30;43.90;;;;;;4140910;28;20490;-52
2022/06/02 04:10:41;;;;;;;;;;;23.40;44.10;;;;;;4147307;28;20325;-52
2022/06/02 04:15:16;;;;;;;;;;;23.60;43.60;;;;;;4142890;28;20381;-55
2022/06/02 04:17:36;;;;;;;;;;;23.50;43.70;;;;;;4147603;28;20708;-51
2022/06/02 04:22:05;;;;;;;;;;;23.60;43.80;;;;;;4139105;28;20047;-55
2022/06/02 04:24:30;;;;;;;;;;;23.60;43.70;;;;;;4155591;28;20350;-52
2022/06/02 04:26:52;;;;;;;;;;;23.50;43.80;;;;;;4146641;28;20507;-51
2022/06/02 04:29:12;;;;;;;;;;;23.50;44.10;;;;;;4140003;28;20032;-55
2022/06/02 04:31:13;;;;;;;;;;;23.80;43.70;;;;;;4145064;28;20315;-49
2022/06/02 04:33:15;;;;;;;;;;;23.80;44.20;;;;;;4149331;28;20425;-51
2022/06/02 04:35:16;;;;;;;;;;;23.80;43.70;;;;;;4129731;28;20158;-52
2022/06/02 04:37:27;;;;;;;;;;;23.60;44.10;;;;;;4144520;28;20504;-56
2022/06/02 04:39:45;;;;;;;;;;;23.80;44.20;;;;;;4146276;28;20341;-55
2022/06/02 04:41:47;;;;;;;;;;;24.00;43.60;;;;;;4135739;28;20341;-55
2022/06/02 04:43:49;;;;;;;;;;;24.00;43.50;;;;;;4151080;28;19978;-53
2022/06/02 04:45:55;;;;;;;;;;;24.00;43.60;;;;;;4151682;28;19928;-50
2022/06/02 04:47:56;;;;;;;;;;;23.90;43.90;;;;;;4147243;28;20048;-53
2022/06/02 04:49:58;;;;;;;;;;;24.00;43.80;;;;;;4132088;28;20289;-51
2022/06/02 04:52:11;;;;;;;;;;;24.30;43.50;;;;;;4157272;28;19954;-52
2022/06/02 04:54:30;;;;;;;;;;;24.20;43.40;;;;;;4175182;28;19975;-50
2022/06/02 04:56:34;;;;;;;;;;;24.20;43.40;;;;;;4146243;28;20405;-55
2022/06/02 04:58:39;;;;;;;;;;;24.10;43.70;;;;;;4150921;28;20219;-52
2022/06/02 05:00:40;;;;;;;;;;;24.20;43.60;;;;;;4152165;28;20080;-53
2022/06/02 05:02:58;;;;;;;;;;;24.20;43.40;;;;;;4145619;28;20370;-58
2022/06/02 05:05:02;;;;;;;;;;;24.20;43.40;;;;;;4145770;28;19928;-52
2022/06/02 05:07:18;;;;;;;;;;;24.10;43.70;;;;;;4139249;28;19924;-52
2022/06/02 05:09:31;;;;;;;;;;;24.20;43.70;;;;;;4143959;28;19928;-52
2022/06/02 05:11:41;;;;;;;;;;;24.40;43.20;;;;;;4144988;28;19962;-59
2022/06/02 05:13:49;;;;;;;;;;;24.40;43.20;;;;;;4144428;28;20558;-56
2022/06/02 05:16:00;;;;;;;;;;;24.30;43.40;;;;;;4147556;28;19925;-52
2022/06/02 05:18:14;;;;;;;;;;;24.20;43.10;;;;;;4136847;28;20397;-56
2022/06/02 05:20:27;;;;;;;;;;;24.30;43.10;;;;;;4127607;28;20027;-57
2022/06/02 05:22:37;;;;;;;;;;;24.50;42.80;;;;;;4150065;28;20333;-52
2022/06/02 05:24:48;;;;;;;;;;;24.40;42.90;;;;;;4142997;28;20356;-57
2022/06/02 05:26:52;;;;;;;;;;;24.30;43.10;;;;;;4147137;28;20022;-53
2022/06/02 05:28:54;;;;;;;;;;;24.20;43.50;;;;;;4137543;28;20022;-53
2022/06/02 05:30:58;;;;;;;;;;;24.40;43.40;;;;;;4131949;28;20052;-54
2022/06/02 05:33:13;;;;;;;;;;;24.50;43.10;;;;;;4131992;28;20818;-56
2022/06/02 05:35:50;;;;;;;;;;;24.40;43.20;;;;;;4129523;28;20164;-55
2022/06/02 05:38:17;;;;;;;;;;;24.30;43.40;;;;;;4091063;28;20440;-58
2022/06/02 05:40:19;;;;;;;;;;;24.10;43.80;;;;;;4095187;28;20583;-55
2022/06/02 05:42:35;;;;;;;;;;;24.20;43.60;;;;;;4128344;28;20481;-52
2022/06/02 05:44:44;;;;;;;;;;;24.20;43.80;;;;;;4129428;28;19979;-51
2022/06/02 05:47:09;;;;;;;;;;;24.10;43.80;;;;;;4126982;28;20278;-58
2022/06/02 05:49:17;;;;;;;;;;;24.00;44.20;;;;;;4134982;28;20337;-53
2022/06/02 05:51:39;;;;;;;;;;;24.20;43.90;;;;;;4131458;28;19929;-53
2022/06/02 05:53:53;;;;;;;;;;;24.40;43.60;;;;;;4133998;28;19928;-52
2022/06/02 05:56:03;;;;;;;;;;;24.20;43.60;;;;;;4135444;28;19932;-53
2022/06/02 05:58:04;;;;;;;;;;;24.20;43.80;;;;;;4136094;28;20327;-52
2022/06/02 06:00:22;;;;;;;;;;;24.00;44.20;;;;;;4130976;28;20990;-51
2022/06/02 06:02:40;;;;;;;;;;;24.20;44.00;;;;;;4137612;28;20046;-54
2022/06/02 06:05:14;;;;;;;;;;;24.30;43.90;;;;;;4132638;28;21069;-54
2022/06/02 06:07:16;;;;;;;;;;;24.20;44.80;;;;;;4083727;28;20270;-50
2022/06/02 06:09:35;;;;;;;;;;;24.10;44.30;;;;;;4135039;28;20027;-55
2022/06/02 06:11:55;;;;;;;;;;;24.00;44.40;;;;;;4128007;28;20401;-52
2022/06/02 06:14:17;;;;;;;;;;;24.20;44.20;;;;;;4135837;28;19937;-59
2022/06/02 06:16:31;;;;;;;;;;;24.20;44.00;;;;;;4134920;28;20126;-56
2022/06/02 06:18:42;;;;;;;;;;;24.10;44.30;;;;;;4127538;28;20473;-55
2022/06/02 06:21:02;;;;;;;;;;;24.00;44.50;;;;;;4130217;28;19947;-49
2022/06/02 06:23:03;;;;;;;;;;;24.00;44.60;;;;;;4130108;28;19950;-47
2022/06/02 06:25:23;;;;;;;;;;;24.10;44.30;;;;;;4137244;28;19956;-53
2022/06/02 06:27:25;;;;;;;;;;;24.00;44.20;;;;;;4128784;28;19947;-56
2022/06/02 06:29:27;;;;;;;;;;;23.90;44.70;;;;;;4132328;28;20570;-50
2022/06/02 06:31:39;;;;;;;;;;;23.90;44.70;;;;;;4107861;28;20028;-51
2022/06/02 06:33:46;;;;;;;;;;;24.10;44.30;;;;;;4138340;28;19982;-49
2022/06/02 06:35:54;;;;;;;;;;;24.20;44.20;;;;;;4105822;28;19939;-54
2022/06/02 06:37:58;;;;;;;;;;;24.00;44.80;;;;;;4124820;28;20362;-56
2022/06/02 06:40:16;;;;;;;;;;;24.00;44.40;;;;;;4111773;28;20363;-53
2022/06/02 06:42:41;;;;;;;;;;;23.90;44.70;;;;;;4123379;28;20477;-56
2022/06/02 06:44:49;;;;;;;;;;;24.00;44.50;;;;;;4125324;28;20375;-55
2022/06/02 06:47:09;;;;;;;;;;;23.90;44.60;;;;;;4125547;28;20300;-52
2022/06/02 06:49:28;;;;;;;;;;;23.80;44.70;;;;;;4127738;28;21016;-49
2022/06/02 06:51:36;;;;;;;;;;;23.80;44.90;;;;;;4133084;28;19980;-52
2022/06/02 06:53:45;;;;;;;;;;;24.10;44.50;;;;;;4125274;28;20035;-55
2022/06/02 06:55:55;;;;;;;;;;;24.10;44.30;;;;;;4126992;28;19932;-55
2022/06/02 06:58:19;;;;;;;;;;;24.00;44.10;;;;;;4122639;28;20263;-51
2022/06/02 07:00:24;;;;;;;;;;;23.90;44.30;;;;;;4131155;28;20004;-55
2022/06/02 07:02:28;;;;;;;;;;;23.80;44.70;;;;;;4129688;28;20666;-49
2022/06/02 07:04:30;;;;;;;;;;;23.90;44.60;;;;;;4123589;28;19924;-49
2022/06/02 07:06:33;;;;;;;;;;;23.80;44.40;;;;;;4119999;28;19924;-52
2022/06/02 07:08:36;;;;;;;;;;;23.70;44.60;;;;;;4131193;28;19987;-53
2022/06/02 07:10:44;;;;;;;;;;;23.60;44.80;;;;;;4125642;28;20300;-49
2022/06/02 07:13:08;;;;;;;;;;;23.60;44.90;;;;;;4123825;28;19982;-53
2022/06/02 07:15:28;;;;;;;;;;;23.40;45.90;;;;;;4131687;28;20217;-50
2022/06/02 07:17:36;;;;;;;;;;;23.40;46.20;;;;;;4126444;28;19936;-51
2022/06/02 07:19:50;;;;;;;;;;;23.30;46.90;;;;;;4132015;28;19928;-53
2022/06/02 07:22:24;;;;;;;;;;;23.30;46.60;;;;;;4125936;28;20030;-54
2022/06/02 07:24:25;;;;;;;;;;;23.30;46.70;;;;;;4105662;28;19942;-50
2022/06/02 07:26:45;;;;;;;;;;;23.70;46.00;;;;;;4122508;28;19935;-52
2022/06/02 07:28:47;;;;;;;;;;;23.70;45.80;;;;;;4124112;28;20320;-54
2022/06/02 07:31:12;;;;;;;;;;;23.60;45.90;;;;;;4134113;28;20499;-56
2022/06/02 07:33:39;;;;;;;;;;;23.60;46.10;;;;;;4136705;28;19928;-50
2022/06/02 07:35:53;;;;;;;;;;;23.80;46.00;;;;;;4133712;28;20029;-53
2022/06/02 07:38:13;;;;;;;;;;;23.80;45.60;;;;;;4132887;28;20443;-52
2022/06/02 07:40:18;;;;;;;;;;;23.80;45.60;;;;;;4118615;28;20373;-52
2022/06/02 07:42:22;;;;;;;;;;;23.70;45.80;;;;;;4131064;28;20065;-52
2022/06/02 07:44:38;;;;;;;;;;;23.60;46.20;;;;;;4144078;28;20010;-53
2022/06/02 07:46:45;;;;;;;;;;;23.80;45.90;;;;;;4135226;28;20480;-55
2022/06/02 07:49:04;;;;;;;;;;;23.80;45.80;;;;;;4146323;28;19924;-54
2022/06/02 07:51:11;;;;;;;;;;;23.70;45.70;;;;;;4143993;28;19989;-53
2022/06/02 07:53:18;;;;;;;;;;;23.60;46.00;;;;;;4147116;28;19967;-49
2022/06/02 07:55:23;;;;;;;;;;;23.70;46.10;;;;;;4150090;28;20074;-53
2022/06/02 07:57:24;;;;;;;;;;;24.00;45.50;;;;;;4141003;28;19943;-50
2022/06/02 07:59:38;;;;;;;;;;;23.90;45.40;;;;;;4146254;28;20117;-50
2022/06/02 08:02:03;;;;;;;;;;;23.80;45.50;;;;;;4138474;28;19924;-50
2022/06/02 08:04:05;;;;;;;;;;;23.70;45.80;;;;;;4141637;28;19994;-53
2022/06/02 08:06:06;;;;;;;;;;;23.70;46.00;;;;;;4135183;28;19975;-51
2022/06/02 08:08:29;;;;;;;;;;;23.90;45.60;;;;;;4140161;28;19960;-55
2022/06/02 08:10:57;;;;;;;;;;;23.90;45.60;;;;;;4140535;28;19924;-56
2022/06/02 08:13:01;;;;;;;;;;;23.80;45.60;;;;;;4152656;28;19948;-52
2022/06/02 08:15:12;;;;;;;;;;;23.70;45.80;;;;;;4143089;28;19975;-52
2022/06/02 08:17:23;;;;;;;;;;;23.70;45.90;;;;;;4135909;28;19942;-54
2022/06/02 08:19:37;;;;;;;;;;;23.80;45.80;;;;;;4138964;28;20071;-51
2022/06/02 08:21:42;;;;;;;;;;;23.70;45.70;;;;;;4135844;28;20392;-50
2022/06/02 08:23:56;;;;;;;;;;;23.60;45.90;;;;;;4137139;28;20019;-58
2022/06/02 08:26:09;;;;;;;;;;;23.60;45.90;;;;;;4138610;28;20210;-50
2022/06/02 08:28:29;;;;;;;;;;;23.70;45.50;;;;;;4133023;28;19933;-48
2022/06/02 08:30:39;;;;;;;;;;;23.70;45.40;;;;;;4146743;28;20861;-55
2022/06/02 08:32:59;;;;;;;;;;;23.60;45.40;;;;;;4144212;28;20435;-54
2022/06/02 08:35:04;;;;;;;;;;;23.50;45.90;;;;;;4149463;28;20524;-56
2022/06/02 08:37:17;;;;;;;;;;;23.60;46.20;;;;;;4135731;28;20378;-56
2022/06/02 08:39:30;;;;;;;;;;;23.80;45.70;;;;;;4137757;28;20606;-56
2022/06/02 08:41:48;;;;;;;;;;;23.80;45.60;;;;;;4138663;28;20102;-57
2022/06/02 08:44:08;;;;;;;;;;;23.70;45.80;;;;;;4147333;28;19975;-52
2022/06/02 08:46:27;;;;;;;;;;;23.60;46.00;;;;;;4157594;28;20541;-55
2022/06/02 08:48:38;;;;;;;;;;;23.60;46.10;;;;;;4139878;28;20285;-51
2022/06/02 08:50:42;;;;;;;;;;;23.70;45.70;;;;;;4139512;28;20211;-50
2022/06/02 08:53:03;;;;;;;;;;;23.60;45.70;;;;;;4138615;28;19993;-52
2022/06/02 08:55:26;;;;;;;;;;;23.50;45.70;;;;;;4140763;28;19928;-51
2022/06/02 08:57:30;;;;;;;;;;;23.50;45.90;;;;;;4140847;28;19932;-53
2022/06/02 08:59:31;;;;;;;;;;;23.70;45.70;;;;;;4140805;28;19928;-52
2022/06/02 09:01:51;;;;;;;;;;;23.70;45.50;;;;;;4142102;28;20421;-57
2022/06/02 09:04:11;;;;;;;;;;;23.60;45.60;;;;;;4142993;28;19980;-57
2022/06/02 09:06:30;;;;;;;;;;;23.50;45.90;;;;;;4144583;28;19958;-58
2022/06/02 09:08:35;;;;;;;;;;;23.60;46.00;;;;;;4149170;28;20074;-53
2022/06/02 09:10:45;;;;;;;;;;;23.60;45.70;;;;;;4140484;28;20312;-51
2022/06/02 09:12:48;;;;;;;;;;;23.60;45.60;;;;;;4143391;28;19986;-54
2022/06/02 09:15:02;;;;;;;;;;;23.50;45.70;;;;;;4143154;28;19928;-55
2022/06/02 09:17:15;;;;;;;;;;;23.40;46.00;;;;;;4140384;28;20520;-54
2022/06/02 09:19:17;;;;;;;;;;;23.50;46.00;;;;;;4141421;28;19951;-55
2022/06/02 09:21:31;;;;;;;;;;;23.40;45.80;;;;;;4151450;28;19986;-56
2022/06/02 09:23:42;;;;;;;;;;;23.40;45.90;;;;;;4145663;28;19938;-53
2022/06/02 09:25:43;;;;;;;;;;;23.40;46.20;;;;;;4151049;28;20096;-51
2022/06/02 09:27:45;;;;;;;;;;;23.60;45.90;;;;;;4142999;28;20225;-51
2022/06/02 09:30:08;;;;;;;;;;;23.70;45.50;;;;;;4143534;28;20104;-57
2022/06/02 09:32:12;;;;;;;;;;;23.60;45.50;;;;;;4146060;28;20322;-50
2022/06/02 09:34:26;;;;;;;;;;;23.50;45.70;;;;;;4142840;28;20417;-52
2022/06/02 09:36:45;;;;;;;;;;;23.40;45.90;;;;;;4125588;28;20647;-56
2022/06/02 09:38:49;;;;;;;;;;;23.50;45.80;;;;;;4148104;28;19934;-55
2022/06/02 09:41:20;;;;;;;;;;;23.50;45.60;;;;;;4145542;28;20426;-56
2022/06/02 09:43:30;;;;;;;;;;;23.40;45.60;;;;;;4134807;28;20428;-56
2022/06/02 09:45:43;;;;;;;;;;;23.30;46.00;;;;;;4155088;28;19935;-55
2022/06/02 09:47:52;;;;;;;;;;;23.30;46.00;;;;;;4148795;28;20420;-58
2022/06/02 09:50:13;;;;;;;;;;;23.30;46.00;;;;;;4152348;28;19933;-55
2022/06/02 09:52:33;;;;;;;;;;;23.20;46.10;;;;;;4144716;28;20527;-56
2022/06/02 09:54:37;;;;;;;;;;;23.10;45.80;;;;;;4146885;28;19927;-56
2022/06/02 09:56:57;;;;;;;;;;;23.00;45.40;;;;;;4145019;28;19946;-56
2022/06/02 09:59:20;;;;;;;;;;;22.90;45.60;;;;;;4137333;28;19932;-53
2022/06/02 10:01:30;;;;;;;;;;;22.80;45.70;;;;;;4152949;28;19978;-53
2022/06/02 10:03:57;;;;;;;;;;;22.70;46.00;;;;;;4144285;28;20716;-55
2022/06/02 10:06:17;;;;;;;;;;;22.60;46.20;;;;;;4142219;28;20000;-58
2022/06/02 10:08:27;;;;;;;;;;;22.50;46.30;;;;;;4139307;28;19949;-56
2022/06/02 10:10:51;;;;;;;;;;;22.40;46.50;;;;;;4142680;28;20329;-52
2022/06/02 10:13:07;;;;;;;;;;;22.40;46.80;;;;;;4135880;28;20550;-54
2022/06/02 10:15:21;;;;;;;;;;;22.30;46.80;;;;;;4144778;28;20594;-46
2022/06/02 10:17:34;;;;;;;;;;;22.30;47.40;;;;;;4146563;28;20029;-53
2022/06/02 10:19:45;;;;;;;;;;;22.20;47.80;;;;;;4145377;28;20261;-48
2022/06/02 10:22:02;;;;;;;;;;;22.20;48.20;;;;;;4148183;28;19928;-49
2022/06/02 10:24:06;;;;;;;;;;;22.10;48.40;;;;;;4149973;28;19932;-48
2022/06/02 10:26:20;;;;;;;;;;;22.10;48.60;;;;;;4145125;28;19982;-51
2022/06/02 10:28:24;;;;;;;;;;;22.00;48.70;;;;;;4128585;28;20480;-46
2022/06/02 10:31:00;;;;;;;;;;;22.00;48.90;;;;;;4140986;28;19986;-49
2022/06/02 10:33:07;;;;;;;;;;;21.90;49.00;;;;;;4146514;28;19935;-47
2022/06/02 10:35:12;;;;;;;;;;;21.90;49.00;;;;;;4144996;28;19935;-49
2022/06/02 10:37:33;;;;;;;;;;;21.80;48.90;;;;;;4141412;28;19928;-44
2022/06/02 10:39:47;;;;;;;;;;;21.80;49.00;;;;;;4143100;28;20549;-47
2022/06/02 10:41:57;;;;;;;;;;;21.70;49.00;;;;;;4139257;28;19950;-42
2022/06/02 10:44:07;;;;;;;;;;;21.70;49.10;;;;;;4139705;28;20024;-42
2022/06/02 10:46:14;;;;;;;;;;;21.60;49.10;;;;;;4145596;28;19929;-42
2022/06/02 10:48:34;;;;;;;;;;;21.60;49.10;;;;;;4139805;28;19936;-43
2022/06/02 10:50:54;;;;;;;;;;;21.60;49.10;;;;;;4136510;28;19935;-43
2022/06/02 10:52:55;;;;;;;;;;;21.50;48.90;;;;;;4135388;28;19928;-42
2022/06/02 10:55:07;;;;;;;;;;;21.50;49.00;;;;;;4141635;28;20062;-41
2022/06/02 10:57:08;;;;;;;;;;;21.50;49.10;;;;;;4142226;28;19928;-41
2022/06/02 10:59:25;;;;;;;;;;;21.40;49.20;;;;;;4131818;28;19935;-41
2022/06/02 11:01:50;;;;;;;;;;;21.30;49.10;;;;;;4144038;28;20597;-45
2022/06/02 11:03:57;;;;;;;;;;;21.30;49.10;;;;;;4136717;28;20428;-44
2022/06/02 11:06:09;;;;;;;;;;;21.30;49.20;;;;;;4143452;28;19932;-44
2022/06/02 11:08:14;;;;;;;;;;;21.30;49.30;;;;;;4146443;28;19959;-41
2022/06/02 11:10:38;;;;;;;;;;;21.20;49.20;;;;;;4125890;28;20604;-43
2022/06/02 11:12:42;;;;;;;;;;;21.20;49.30;;;;;;4141094;28;19986;-46
2022/06/02 11:15:09;;;;;;;;;;;21.10;49.20;;;;;;4141341;28;19944;-44
2022/06/02 11:17:11;;;;;;;;;;;21.10;49.20;;;;;;4136670;28;20515;-45
2022/06/02 11:19:31;;;;;;;;;;;21.00;49.30;;;;;;4144477;28;20328;-42
2022/06/02 11:21:36;;;;;;;;;;;21.00;49.50;;;;;;4141926;28;20388;-47
2022/06/02 11:23:56;;;;;;;;;;;20.90;49.60;;;;;;4148892;28;19936;-46
2022/06/02 11:26:09;;;;;;;;;;;20.90;49.80;;;;;;4141764;28;19924;-45
2022/06/02 11:28:11;;;;;;;;;;;20.80;49.90;;;;;;4142418;28;19935;-44
2022/06/02 11:30:20;;;;;;;;;;;20.80;50.10;;;;;;4147622;28;20047;-42
2022/06/02 11:32:28;;;;;;;;;;;20.80;50.20;;;;;;4147129;28;20164;-47
2022/06/02 11:34:48;;;;;;;;;;;20.70;50.20;;;;;;4148640;28;19935;-43
2022/06/02 11:37:02;;;;;;;;;;;20.70;50.30;;;;;;4142865;28;19955;-43
2022/06/02 11:39:31;;;;;;;;;;;20.60;50.50;;;;;;4148461;28;19924;-45
2022/06/02 11:41:41;;;;;;;;;;;20.60;50.80;;;;;;4135219;28;19995;-45
2022/06/02 11:43:49;;;;;;;;;;;20.60;50.90;;;;;;4141695;28;19928;-44
2022/06/02 11:45:54;;;;;;;;;;;20.50;51.00;;;;;;4140537;28;19928;-44
2022/06/02 11:48:04;;;;;;;;;;;20.50;51.20;;;;;;4138723;28;20076;-47
2022/06/02 11:50:23;;;;;;;;;;;20.50;51.30;;;;;;4142515;28;19939;-44
2022/06/02 11:52:43;;;;;;;;;;;20.40;51.50;;;;;;4137773;28;19928;-44
2022/06/02 11:54:53;;;;;;;;;;;20.40;51.30;;;;;;4154898;28;20938;-41
2022/06/02 11:57:17;;;;;;;;;;;20.40;51.30;;;;;;4138924;28;19935;-44
2022/06/02 11:59:31;;;;;;;;;;;20.40;51.30;;;;;;4145633;28;20421;-46
2022/06/02 12:01:40;;;;;;;;;;;20.30;51.50;;;;;;4143387;28;20047;-44
2022/06/02 12:04:00;;;;;;;;;;;20.30;51.50;;;;;;4137715;28;20212;-42
2022/06/02 12:06:15;;;;;;;;;;;20.30;51.60;;;;;;4144774;28;20042;-42
2022/06/02 12:08:27;;;;;;;;;;;20.30;51.80;;;;;;4140196;28;20349;-42
2022/06/02 12:10:46;;;;;;;;;;;20.20;51.90;;;;;;4141844;28;20471;-44
2022/06/02 12:12:48;;;;;;;;;;;20.20;52.10;;;;;;4139623;28;19931;-44
2022/06/02 12:14:52;;;;;;;;;;;20.20;52.20;;;;;;4141728;28;20043;-44
2022/06/02 12:17:12;;;;;;;;;;;20.10;52.10;;;;;;4147087;28;19929;-46
2022/06/02 12:19:16;;;;;;;;;;;20.10;51.90;;;;;;4143362;28;20497;-43
2022/06/02 12:21:29;;;;;;;;;;;20.10;51.70;;;;;;4165753;28;19923;-45
2022/06/02 12:23:31;;;;;;;;;;;20.10;52.10;;;;;;4146570;28;20448;-44
2022/06/02 12:25:51;;;;;;;;;;;20.00;52.10;;;;;;4139870;28;19986;-45
2022/06/02 12:28:10;;;;;;;;;;;20.00;52.10;;;;;;4151147;28;20884;-45
2022/06/02 12:30:24;;;;;;;;;;;20.00;52.40;;;;;;4146721;28;19928;-45
2022/06/02 12:32:38;;;;;;;;;;;20.00;52.50;;;;;;4144279;28;21171;-43
2022/06/02 12:34:53;;;;;;;;;;;19.90;52.70;;;;;;4150496;28;20212;-42
2022/06/02 12:37:10;;;;;;;;;;;19.90;52.60;;;;;;4146516;28;19928;-41
2022/06/02 12:39:29;;;;;;;;;;;19.90;52.60;;;;;;4143481;28;19970;-43
2022/06/02 12:41:49;;;;;;;;;;;19.80;52.70;;;;;;4146308;28;19939;-45
2022/06/02 12:44:02;;;;;;;;;;;19.80;52.80;;;;;;4143864;28;20318;-46
2022/06/02 12:46:23;;;;;;;;;;;19.80;52.80;;;;;;4150766;28;19968;-45
2022/06/02 12:48:28;;;;;;;;;;;19.80;53.10;;;;;;4147029;28;20029;-43
2022/06/02 12:50:34;;;;;;;;;;;19.70;53.00;;;;;;4145123;28;19972;-41
2022/06/02 12:52:48;;;;;;;;;;;19.70;53.10;;;;;;4142639;28;20922;-44
2022/06/02 12:54:56;;;;;;;;;;;19.70;53.00;;;;;;4139830;28;20070;-43
2022/06/02 12:56:57;;;;;;;;;;;19.60;52.90;;;;;;4136875;28;19983;-42